createdAt,value
2019-04-10T00:00:37.302Z,1016.38
2019-04-10T00:01:36.799Z,1016.43
2019-04-10T00:02:37.635Z,1016.47
2019-04-10T00:03:39.135Z,1016.35
2019-04-10T00:04:37.005Z,1016.40
2019-04-10T00:05:36.766Z,1016.37
2019-04-10T00:06:37.578Z,1016.41
2019-04-10T00:07:37.481Z,1016.33
2019-04-10T00:08:36.736Z,1016.39
2019-04-10T00:09:36.715Z,1016.39
2019-04-10T00:10:36.714Z,1016.41
2019-04-10T00:11:36.733Z,1016.41
2019-04-10T00:12:36.695Z,1016.39
2019-04-10T00:13:36.694Z,1016.37
2019-04-10T00:14:36.741Z,1016.31
2019-04-10T00:15:36.653Z,1016.41
2019-04-10T00:16:36.664Z,1016.39
2019-04-10T00:17:37.504Z,1016.35
2019-04-10T00:18:36.631Z,1016.43
2019-04-10T00:19:36.619Z,1016.45
2019-04-10T00:20:36.617Z,1016.42
2019-04-10T00:21:37.424Z,1016.43
2019-04-10T00:22:36.581Z,1016.48
2019-04-10T00:23:37.376Z,1016.45
2019-04-10T00:24:36.558Z,1016.40
2019-04-10T00:25:37.116Z,1016.47
2019-04-10T00:26:37.463Z,1016.41
2019-04-10T00:27:36.833Z,1016.45
2019-04-10T00:28:36.527Z,1016.47
2019-04-10T00:29:36.511Z,1016.43
2019-04-10T00:30:37.485Z,1016.49
2019-04-10T00:31:36.508Z,1016.51
2019-04-10T00:32:36.475Z,1016.69
2019-04-10T00:33:36.744Z,1016.44
2019-04-10T00:34:36.484Z,1016.49
2019-04-10T00:35:37.207Z,1016.48
2019-04-10T00:36:37.339Z,1016.60
2019-04-10T00:37:37.361Z,1016.50
2019-04-10T00:38:36.412Z,1016.55
2019-04-10T00:39:36.918Z,1016.50
2019-04-10T00:40:36.416Z,1016.62
2019-04-10T00:41:36.559Z,1016.57
2019-04-10T00:42:36.993Z,1016.58
2019-04-10T00:43:37.117Z,1016.56
2019-04-10T00:44:37.442Z,1016.44
2019-04-10T00:45:36.337Z,1016.52
2019-04-10T00:46:36.329Z,1016.62
2019-04-10T00:47:37.345Z,1016.49
2019-04-10T00:48:36.334Z,1016.46
2019-04-10T00:49:36.309Z,1016.47
2019-04-10T00:50:36.986Z,1016.55
2019-04-10T00:51:36.340Z,1016.47
2019-04-10T00:52:36.538Z,1016.44
2019-04-10T00:53:37.132Z,1016.52
2019-04-10T00:54:37.235Z,1016.60
2019-04-10T00:55:36.224Z,1016.59
2019-04-10T00:56:36.856Z,1016.50
2019-04-10T00:57:37.154Z,1016.56
2019-04-10T00:58:37.442Z,1016.49
2019-04-10T00:59:36.607Z,1016.50
2019-04-10T01:00:36.911Z,1016.63
2019-04-10T01:01:37.407Z,1016.52
2019-04-10T01:02:36.592Z,1016.46
2019-04-10T01:03:36.151Z,1016.54
2019-04-10T01:04:36.227Z,1016.49
2019-04-10T01:05:36.126Z,1016.60
2019-04-10T01:06:36.110Z,1016.55
2019-04-10T01:07:39.559Z,1016.52
2019-04-10T01:08:37.026Z,1016.55
2019-04-10T01:09:36.079Z,1016.55
2019-04-10T01:10:36.710Z,1016.46
2019-04-10T01:11:36.079Z,1016.54
2019-04-10T01:12:36.307Z,1016.66
2019-04-10T01:13:36.899Z,1016.56
2019-04-10T01:14:36.025Z,1016.59
2019-04-10T01:15:36.452Z,1016.60
2019-04-10T01:16:36.007Z,1016.58
2019-04-10T01:17:35.995Z,1016.75
2019-04-10T01:18:35.983Z,1016.67
2019-04-10T01:19:36.375Z,1016.60
2019-04-10T01:20:36.021Z,1016.65
2019-04-10T01:21:36.784Z,1016.59
2019-04-10T01:22:36.211Z,1016.62
2019-04-10T01:23:35.923Z,1016.49
2019-04-10T01:24:35.921Z,1016.54
2019-04-10T01:25:36.773Z,1016.59
2019-04-10T01:26:37.014Z,1016.61
2019-04-10T01:27:36.134Z,1016.58
2019-04-10T01:28:36.709Z,1016.60
2019-04-10T01:29:35.866Z,1016.57
2019-04-10T01:30:35.858Z,1016.62
2019-04-10T01:31:35.870Z,1016.64
2019-04-10T01:32:36.386Z,1016.66
2019-04-10T01:33:36.840Z,1016.59
2019-04-10T01:34:35.817Z,1016.60
2019-04-10T01:35:35.804Z,1016.65
2019-04-10T01:36:35.807Z,1016.71
2019-04-10T01:37:47.704Z,1016.75
2019-04-10T01:38:37.731Z,1016.64
2019-04-10T01:39:35.764Z,1016.68
2019-04-10T01:40:35.753Z,1016.63
2019-04-10T01:41:36.280Z,1016.66
2019-04-10T01:42:36.748Z,1016.65
2019-04-10T01:43:35.741Z,1016.58
2019-04-10T01:44:36.447Z,1016.58
2019-04-10T01:45:35.738Z,1016.68
2019-04-10T01:46:36.135Z,1016.76
2019-04-10T01:47:35.693Z,1016.70
2019-04-10T01:48:36.297Z,1016.62
2019-04-10T01:49:35.747Z,1016.69
2019-04-10T01:50:36.610Z,1016.65
2019-04-10T01:51:35.645Z,1016.66
2019-04-10T01:52:35.630Z,1016.70
2019-04-10T01:53:35.682Z,1016.70
2019-04-10T01:54:35.616Z,1016.69
2019-04-10T01:55:35.775Z,1016.69
2019-04-10T01:56:36.748Z,1016.63
2019-04-10T01:57:36.553Z,1016.64
2019-04-10T01:58:35.557Z,1016.76
2019-04-10T01:59:36.160Z,1016.66
2019-04-10T02:00:35.534Z,1016.74
2019-04-10T02:01:36.632Z,1016.72
2019-04-10T02:02:35.530Z,1016.65
2019-04-10T02:03:36.246Z,1016.66
2019-04-10T02:04:35.501Z,1016.74
2019-04-10T02:05:36.401Z,1016.70
2019-04-10T02:06:35.791Z,1016.71
2019-04-10T02:07:35.461Z,1016.68
2019-04-10T02:08:36.117Z,1016.61
2019-04-10T02:09:35.459Z,1016.57
2019-04-10T02:10:36.387Z,1016.65
2019-04-10T02:11:35.428Z,1016.65
2019-04-10T02:12:35.408Z,1016.66
2019-04-10T02:13:35.850Z,1016.66
2019-04-10T02:14:36.348Z,1016.74
2019-04-10T02:15:36.328Z,1016.61
2019-04-10T02:16:35.381Z,1016.60
2019-04-10T02:17:35.370Z,1016.75
2019-04-10T02:18:35.345Z,1016.75
2019-04-10T02:19:36.390Z,1016.75
2019-04-10T02:20:35.337Z,1016.75
2019-04-10T02:21:35.989Z,1016.73
2019-04-10T02:22:36.274Z,1016.74
2019-04-10T02:23:36.470Z,1016.78
2019-04-10T02:24:35.524Z,1016.74
2019-04-10T02:25:35.262Z,1016.67
2019-04-10T02:26:35.938Z,1016.83
2019-04-10T02:27:35.366Z,1016.81
2019-04-10T02:28:36.160Z,1016.80
2019-04-10T02:29:35.668Z,1016.75
2019-04-10T02:30:37.274Z,1016.78
2019-04-10T02:31:36.471Z,1016.73
2019-04-10T02:32:36.974Z,1016.75
2019-04-10T02:33:35.635Z,1016.78
2019-04-10T02:34:35.211Z,1016.78
2019-04-10T02:35:36.161Z,1016.81
2019-04-10T02:36:36.241Z,1016.75
2019-04-10T02:37:35.199Z,1016.77
2019-04-10T02:38:49.256Z,1016.86
2019-04-10T02:39:42.473Z,1016.84
2019-04-10T02:40:37.286Z,1016.78
2019-04-10T02:41:36.376Z,1016.86
2019-04-10T02:42:35.085Z,1016.87
2019-04-10T02:43:36.007Z,1016.90
2019-04-10T02:44:35.523Z,1016.81
2019-04-10T02:45:36.436Z,1016.82
2019-04-10T02:46:36.769Z,1016.84
2019-04-10T02:47:35.061Z,1016.87
2019-04-10T02:48:36.058Z,1016.88
2019-04-10T02:49:36.449Z,1016.93
2019-04-10T02:50:35.499Z,1016.90
2019-04-10T02:51:35.269Z,1016.87
2019-04-10T02:52:35.099Z,1016.86
2019-04-10T02:53:35.274Z,1016.82
2019-04-10T02:54:35.717Z,1016.85
2019-04-10T02:55:35.555Z,1016.83
2019-04-10T02:56:34.964Z,1016.85
2019-04-10T02:57:36.647Z,1016.74
2019-04-10T02:58:34.916Z,1016.82
2019-04-10T02:59:35.190Z,1016.88
2019-04-10T03:00:36.071Z,1016.88
2019-04-10T03:01:35.587Z,1016.86
2019-04-10T03:02:36.282Z,1016.82
2019-04-10T03:03:36.132Z,1016.79
2019-04-10T03:04:35.236Z,1016.76
2019-04-10T03:05:35.373Z,1016.86
2019-04-10T03:06:35.499Z,1016.95
2019-04-10T03:07:35.864Z,1017.01
2019-04-10T03:08:44.691Z,1016.82
2019-04-10T03:09:49.499Z,1016.92
2019-04-10T03:10:43.232Z,1016.84
2019-04-10T03:11:35.838Z,1016.93
2019-04-10T03:12:36.255Z,1016.88
2019-04-10T03:13:35.877Z,1016.91
2019-04-10T03:14:34.752Z,1016.86
2019-04-10T03:15:35.961Z,1016.85
2019-04-10T03:16:35.481Z,1016.92
2019-04-10T03:17:34.899Z,1016.87
2019-04-10T03:18:34.851Z,1016.82
2019-04-10T03:19:35.803Z,1016.96
2019-04-10T03:20:34.676Z,1016.89
2019-04-10T03:21:35.432Z,1016.88
2019-04-10T03:22:34.713Z,1016.85
2019-04-10T03:23:35.633Z,1016.90
2019-04-10T03:24:34.653Z,1016.91
2019-04-10T03:25:35.169Z,1016.93
2019-04-10T03:26:34.631Z,1016.87
2019-04-10T03:27:34.633Z,1016.86
2019-04-10T03:28:35.441Z,1016.92
2019-04-10T03:29:34.591Z,1016.91
2019-04-10T03:30:36.524Z,1016.92
2019-04-10T03:31:34.699Z,1016.97
2019-04-10T03:32:37.120Z,1017.00
2019-04-10T03:33:39.494Z,1017.03
2019-04-10T03:34:40.003Z,1016.94
2019-04-10T03:35:35.651Z,1016.94
2019-04-10T03:36:34.509Z,1017.01
2019-04-10T03:37:34.508Z,1017.01
2019-04-10T03:38:46.934Z,1016.97
2019-04-10T03:39:35.959Z,1017.01
2019-04-10T03:40:35.455Z,1016.94
2019-04-10T03:41:34.542Z,1016.89
2019-04-10T03:42:34.454Z,1016.94
2019-04-10T03:43:34.445Z,1017.00
2019-04-10T03:44:34.665Z,1016.96
2019-04-10T03:45:34.784Z,1016.98
2019-04-10T03:46:37.063Z,1017.02
2019-04-10T03:47:35.506Z,1016.94
2019-04-10T03:48:34.394Z,1016.94
2019-04-10T03:49:34.372Z,1016.98
2019-04-10T03:50:34.362Z,1016.92
2019-04-10T03:51:34.522Z,1017.02
2019-04-10T03:52:34.355Z,1016.92
2019-04-10T03:53:34.340Z,1016.91
2019-04-10T03:54:34.354Z,1017.04
2019-04-10T03:55:34.829Z,1017.03
2019-04-10T03:56:34.311Z,1017.00
2019-04-10T03:57:34.418Z,1017.05
2019-04-10T03:58:34.305Z,1017.00
2019-04-10T03:59:34.289Z,1017.03
2019-04-10T04:00:34.344Z,1017.06
2019-04-10T04:01:35.318Z,1017.05
2019-04-10T04:02:34.237Z,1017.07
2019-04-10T04:03:35.056Z,1017.14
2019-04-10T04:04:34.225Z,1017.15
2019-04-10T04:05:34.963Z,1017.05
2019-04-10T04:06:34.195Z,1017.08
2019-04-10T04:07:34.745Z,1017.00
2019-04-10T04:08:35.293Z,1017.09
2019-04-10T04:09:34.182Z,1017.04
2019-04-10T04:10:35.054Z,1017.06
2019-04-10T04:11:34.159Z,1017.08
2019-04-10T04:12:35.011Z,1017.00
2019-04-10T04:13:34.150Z,1017.10
2019-04-10T04:14:34.635Z,1017.11
2019-04-10T04:15:34.101Z,1017.07
2019-04-10T04:16:35.095Z,1017.10
2019-04-10T04:17:34.079Z,1017.03
2019-04-10T04:18:34.067Z,1017.15
2019-04-10T04:19:34.562Z,1017.14
2019-04-10T04:20:34.947Z,1017.13
2019-04-10T04:21:34.182Z,1017.22
2019-04-10T04:22:34.027Z,1017.18
2019-04-10T04:23:34.092Z,1017.23
2019-04-10T04:24:34.012Z,1017.19
2019-04-10T04:25:34.507Z,1017.20
2019-04-10T04:26:35.005Z,1017.34
2019-04-10T04:27:33.975Z,1017.24
2019-04-10T04:28:34.271Z,1017.28
2019-04-10T04:29:34.515Z,1017.31
2019-04-10T04:30:34.115Z,1017.33
2019-04-10T04:31:33.922Z,1017.34
2019-04-10T04:32:33.922Z,1017.47
2019-04-10T04:33:34.119Z,1017.32
2019-04-10T04:34:34.713Z,1017.34
2019-04-10T04:35:34.625Z,1017.37
2019-04-10T04:36:33.872Z,1017.36
2019-04-10T04:37:33.875Z,1017.38
2019-04-10T04:38:34.613Z,1017.35
2019-04-10T04:39:34.949Z,1017.38
2019-04-10T04:40:33.850Z,1017.42
2019-04-10T04:41:33.877Z,1017.57
2019-04-10T04:42:33.807Z,1017.48
2019-04-10T04:43:33.921Z,1017.35
2019-04-10T04:44:33.800Z,1017.52
2019-04-10T04:45:33.825Z,1017.50
2019-04-10T04:46:34.585Z,1017.55
2019-04-10T04:47:33.795Z,1017.57
2019-04-10T04:48:34.247Z,1017.62
2019-04-10T04:49:33.743Z,1017.56
2019-04-10T04:50:34.239Z,1017.63
2019-04-10T04:51:34.616Z,1017.62
2019-04-10T04:52:34.890Z,1017.59
2019-04-10T04:53:34.378Z,1017.68
2019-04-10T04:54:33.683Z,1017.58
2019-04-10T04:55:33.693Z,1017.61
2019-04-10T04:56:33.823Z,1017.67
2019-04-10T04:57:35.232Z,1017.71
2019-04-10T04:58:33.999Z,1017.63
2019-04-10T04:59:34.590Z,1017.69
2019-04-10T05:00:34.058Z,1017.69
2019-04-10T05:01:33.608Z,1017.71
2019-04-10T05:02:34.618Z,1017.69
2019-04-10T05:03:33.596Z,1017.72
2019-04-10T05:04:33.769Z,1017.74
2019-04-10T05:05:33.673Z,1017.79
2019-04-10T05:06:33.566Z,1017.71
2019-04-10T05:07:33.555Z,1017.76
2019-04-10T05:08:34.431Z,1017.78
2019-04-10T05:09:38.395Z,1017.78
2019-04-10T05:10:35.608Z,1017.79
2019-04-10T05:11:34.278Z,1017.83
2019-04-10T05:12:33.943Z,1017.76
2019-04-10T05:13:33.482Z,1017.77
2019-04-10T05:14:33.577Z,1017.77
2019-04-10T05:15:33.479Z,1017.83
2019-04-10T05:16:33.457Z,1017.89
2019-04-10T05:17:33.441Z,1017.87
2019-04-10T05:18:33.441Z,1017.84
2019-04-10T05:19:34.040Z,1017.89
2019-04-10T05:20:45.039Z,1017.82
2019-04-10T05:21:35.112Z,1017.96
2019-04-10T05:22:34.009Z,1017.97
2019-04-10T05:23:33.390Z,1017.92
2019-04-10T05:24:33.377Z,1017.82
2019-04-10T05:25:34.344Z,1017.89
2019-04-10T05:26:34.281Z,1017.87
2019-04-10T05:27:33.346Z,1017.91
2019-04-10T05:28:33.325Z,1017.87
2019-04-10T05:29:33.334Z,1017.98
2019-04-10T05:30:33.561Z,1017.91
2019-04-10T05:31:34.201Z,1017.99
2019-04-10T05:32:33.283Z,1018.04
2019-04-10T05:33:33.291Z,1018.07
2019-04-10T05:34:33.866Z,1018.13
2019-04-10T05:35:33.262Z,1018.01
2019-04-10T05:36:33.562Z,1018.11
2019-04-10T05:37:33.780Z,1018.12
2019-04-10T05:38:33.389Z,1018.13
2019-04-10T05:39:42.354Z,1018.08
2019-04-10T05:40:34.662Z,1018.17
2019-04-10T05:41:33.595Z,1018.21
2019-04-10T05:42:33.178Z,1018.28
2019-04-10T05:43:34.127Z,1018.19
2019-04-10T05:44:34.036Z,1018.40
2019-04-10T05:45:33.874Z,1018.30
2019-04-10T05:46:33.186Z,1018.26
2019-04-10T05:47:33.126Z,1018.27
2019-04-10T05:48:33.480Z,1018.21
2019-04-10T05:49:33.177Z,1018.28
2019-04-10T05:50:33.084Z,1018.28
2019-04-10T05:51:33.095Z,1018.23
2019-04-10T05:52:33.274Z,1018.26
2019-04-10T05:53:33.044Z,1018.42
2019-04-10T05:54:33.273Z,1018.27
2019-04-10T05:55:33.126Z,1018.37
2019-04-10T05:56:33.034Z,1018.30
2019-04-10T05:57:33.032Z,1018.29
2019-04-10T05:58:33.362Z,1018.32
2019-04-10T05:59:34.183Z,1018.38
2019-04-10T06:00:32.986Z,1018.40
2019-04-10T06:01:38.127Z,1018.39
2019-04-10T06:02:34.122Z,1018.44
2019-04-10T06:03:32.958Z,1018.41
2019-04-10T06:04:33.603Z,1018.36
2019-04-10T06:05:34.090Z,1018.45
2019-04-10T06:06:32.931Z,1018.39
2019-04-10T06:07:32.949Z,1018.40
2019-04-10T06:08:33.539Z,1018.42
2019-04-10T06:09:33.171Z,1018.45
2019-04-10T06:10:32.901Z,1018.44
2019-04-10T06:11:33.155Z,1018.43
2019-04-10T06:12:33.835Z,1018.52
2019-04-10T06:13:32.838Z,1018.51
2019-04-10T06:14:32.890Z,1018.44
2019-04-10T06:15:32.951Z,1018.54
2019-04-10T06:16:32.806Z,1018.49
2019-04-10T06:17:32.918Z,1018.47
2019-04-10T06:18:33.351Z,1018.56
2019-04-10T06:19:32.775Z,1018.56
2019-04-10T06:20:33.500Z,1018.53
2019-04-10T06:21:32.754Z,1018.52
2019-04-10T06:22:32.763Z,1018.46
2019-04-10T06:23:33.735Z,1018.50
2019-04-10T06:24:32.733Z,1018.60
2019-04-10T06:25:34.121Z,1018.56
2019-04-10T06:26:32.772Z,1018.52
2019-04-10T06:27:32.750Z,1018.55
2019-04-10T06:28:32.716Z,1018.56
2019-04-10T06:29:32.897Z,1018.60
2019-04-10T06:30:32.681Z,1018.61
2019-04-10T06:31:32.681Z,1018.53
2019-04-10T06:32:32.660Z,1018.51
2019-04-10T06:33:32.635Z,1018.49
2019-04-10T06:34:32.631Z,1018.45
2019-04-10T06:35:32.607Z,1018.42
2019-04-10T06:36:33.405Z,1018.47
2019-04-10T06:37:34.506Z,1018.41
2019-04-10T06:38:32.569Z,1018.45
2019-04-10T06:39:33.215Z,1018.44
2019-04-10T06:40:33.391Z,1018.41
2019-04-10T06:41:32.751Z,1018.50
2019-04-10T06:42:44.347Z,1018.60
2019-04-10T06:43:33.531Z,1018.53
2019-04-10T06:44:32.508Z,1018.59
2019-04-10T06:45:33.589Z,1018.43
2019-04-10T06:46:32.728Z,1018.62
2019-04-10T06:47:32.465Z,1018.66
2019-04-10T06:48:32.467Z,1018.57
2019-04-10T06:49:33.178Z,1018.71
2019-04-10T06:50:32.474Z,1018.52
2019-04-10T06:51:33.412Z,1018.69
2019-04-10T06:52:32.445Z,1018.63
2019-04-10T06:53:33.195Z,1018.63
2019-04-10T06:54:33.126Z,1018.64
2019-04-10T06:55:32.425Z,1018.69
2019-04-10T06:56:33.356Z,1018.73
2019-04-10T06:57:33.747Z,1018.63
2019-04-10T06:58:34.003Z,1018.69
2019-04-10T06:59:32.503Z,1018.80
2019-04-10T07:00:32.762Z,1018.73
2019-04-10T07:01:40.471Z,1018.70
2019-04-10T07:02:34.611Z,1018.72
2019-04-10T07:03:45.812Z,1018.71
2019-04-10T07:04:44.167Z,1018.75
2019-04-10T07:05:41.404Z,1018.76
2019-04-10T07:06:47.139Z,1018.81
2019-04-10T07:07:46.535Z,1018.88
2019-04-10T07:08:34.096Z,1018.77
2019-04-10T07:09:32.274Z,1018.80
2019-04-10T07:10:45.684Z,1018.69
2019-04-10T07:11:34.425Z,1018.83
2019-04-10T07:12:34.087Z,1018.80
2019-04-10T07:13:32.298Z,1018.76
2019-04-10T07:14:35.017Z,1018.74
2019-04-10T07:15:32.207Z,1018.70
2019-04-10T07:16:33.840Z,1018.58
2019-04-10T07:17:35.700Z,1018.52
2019-04-10T07:18:35.784Z,1018.48
2019-04-10T07:19:32.402Z,1018.50
2019-04-10T07:20:32.118Z,1018.62
2019-04-10T07:21:34.962Z,1018.57
2019-04-10T07:22:33.098Z,1018.59
2019-04-10T07:23:33.448Z,1018.56
2019-04-10T07:24:36.931Z,1018.50
2019-04-10T07:25:33.098Z,1018.61
2019-04-10T07:26:39.372Z,1018.71
2019-04-10T07:27:36.008Z,1018.77
2019-04-10T07:28:34.126Z,1018.63
2019-04-10T07:29:32.056Z,1018.70
2019-04-10T07:30:32.015Z,1018.60
2019-04-10T07:31:34.980Z,1018.79
2019-04-10T07:32:32.082Z,1018.73
2019-04-10T07:33:32.875Z,1018.81
2019-04-10T07:34:32.076Z,1018.78
2019-04-10T07:35:33.931Z,1018.77
2019-04-10T07:36:32.883Z,1018.78
2019-04-10T07:37:32.039Z,1018.81
2019-04-10T07:38:32.921Z,1018.78
2019-04-10T07:39:33.537Z,1018.79
2019-04-10T07:40:35.691Z,1018.82
2019-04-10T07:41:31.940Z,1018.87
2019-04-10T07:42:36.869Z,1018.95
2019-04-10T07:43:32.884Z,1019.04
2019-04-10T07:44:31.856Z,1018.99
2019-04-10T07:45:31.867Z,1018.93
2019-04-10T07:46:32.675Z,1019.00
2019-04-10T07:47:31.867Z,1019.03
2019-04-10T07:48:31.819Z,1019.05
2019-04-10T07:49:32.884Z,1019.04
2019-04-10T07:50:31.805Z,1019.10
2019-04-10T07:51:31.940Z,1019.12
2019-04-10T07:52:32.928Z,1019.28
2019-04-10T07:53:31.763Z,1019.25
2019-04-10T07:54:32.934Z,1019.15
2019-04-10T07:55:33.023Z,1019.23
2019-04-10T07:56:31.725Z,1019.16
2019-04-10T07:57:32.812Z,1019.10
2019-04-10T07:58:31.701Z,1019.21
2019-04-10T07:59:31.712Z,1019.18
2019-04-10T08:00:32.065Z,1019.22
2019-04-10T08:01:31.673Z,1019.18
2019-04-10T08:02:31.802Z,1019.20
2019-04-10T08:03:31.663Z,1019.15
2019-04-10T08:04:31.734Z,1019.23
2019-04-10T08:05:31.641Z,1019.22
2019-04-10T08:06:31.630Z,1019.20
2019-04-10T08:07:34.482Z,1019.25
2019-04-10T08:08:31.600Z,1019.18
2019-04-10T08:09:31.590Z,1019.12
2019-04-10T08:10:32.650Z,1019.29
2019-04-10T08:11:31.680Z,1019.34
2019-04-10T08:12:40.577Z,1019.24
2019-04-10T08:13:33.127Z,1019.36
2019-04-10T08:14:31.561Z,1019.28
2019-04-10T08:15:31.662Z,1019.42
2019-04-10T08:16:31.522Z,1019.29
2019-04-10T08:17:32.488Z,1019.34
2019-04-10T08:18:31.731Z,1019.29
2019-04-10T08:19:31.528Z,1019.78
2019-04-10T08:20:32.604Z,1019.37
2019-04-10T08:21:31.731Z,1019.30
2019-04-10T08:22:31.456Z,1019.30
2019-04-10T08:23:32.017Z,1019.39
2019-04-10T08:24:32.262Z,1019.22
2019-04-10T08:25:31.435Z,1019.35
2019-04-10T08:26:32.423Z,1019.36
2019-04-10T08:27:32.038Z,1019.37
2019-04-10T08:28:31.388Z,1019.29
2019-04-10T08:29:32.560Z,1019.45
2019-04-10T08:30:32.142Z,1019.46
2019-04-10T08:31:31.364Z,1019.31
2019-04-10T08:32:32.259Z,1019.22
2019-04-10T08:33:32.228Z,1019.52
2019-04-10T08:34:31.526Z,1019.36
2019-04-10T08:35:31.554Z,1019.36
2019-04-10T08:36:31.872Z,1019.29
2019-04-10T08:37:31.355Z,1019.41
2019-04-10T08:38:32.288Z,1019.38
2019-04-10T08:39:38.415Z,1019.44
2019-04-10T08:40:32.279Z,1019.39
2019-04-10T08:41:31.259Z,1019.41
2019-04-10T08:42:31.282Z,1019.42
2019-04-10T08:43:32.368Z,1019.38
2019-04-10T08:44:31.909Z,1019.37
2019-04-10T08:45:40.151Z,1019.34
2019-04-10T08:46:32.225Z,1019.40
2019-04-10T08:47:31.406Z,1019.41
2019-04-10T08:48:31.985Z,1019.36
2019-04-10T08:49:31.178Z,1019.36
2019-04-10T08:50:32.193Z,1019.44
2019-04-10T08:51:33.111Z,1019.31
2019-04-10T08:52:31.139Z,1019.31
2019-04-10T08:53:31.138Z,1019.27
2019-04-10T08:54:32.155Z,1019.17
2019-04-10T08:55:32.284Z,1019.18
2019-04-10T08:56:32.230Z,1019.06
2019-04-10T08:57:31.889Z,1019.02
2019-04-10T08:58:31.078Z,1019.13
2019-04-10T08:59:31.928Z,1019.09
2019-04-10T09:00:32.241Z,1019.09
2019-04-10T09:01:31.727Z,1019.31
2019-04-10T09:02:31.025Z,1019.21
2019-04-10T09:03:31.015Z,1019.19
2019-04-10T09:04:31.229Z,1019.19
2019-04-10T09:05:30.985Z,1019.22
2019-04-10T09:06:31.523Z,1019.27
2019-04-10T09:07:30.975Z,1019.22
2019-04-10T09:08:30.995Z,1019.19
2019-04-10T09:09:31.869Z,1019.19
2019-04-10T09:10:30.952Z,1019.15
2019-04-10T09:11:32.652Z,1019.31
2019-04-10T09:12:31.653Z,1019.21
2019-04-10T09:13:30.914Z,1019.27
2019-04-10T09:14:30.922Z,1019.28
2019-04-10T09:15:31.935Z,1019.28
2019-04-10T09:16:31.119Z,1019.38
2019-04-10T09:17:31.359Z,1019.44
2019-04-10T09:18:31.564Z,1019.48
2019-04-10T09:19:30.859Z,1019.35
2019-04-10T09:20:31.010Z,1019.42
2019-04-10T09:21:31.709Z,1019.32
2019-04-10T09:22:49.092Z,1019.34
2019-04-10T09:23:40.922Z,1019.32
2019-04-10T09:24:31.786Z,1019.29
2019-04-10T09:25:31.229Z,1019.33
2019-04-10T09:26:30.765Z,1019.35
2019-04-10T09:27:30.786Z,1019.39
2019-04-10T09:28:30.776Z,1019.34
2019-04-10T09:29:31.912Z,1019.35
2019-04-10T09:30:31.024Z,1019.20
2019-04-10T09:31:31.599Z,1019.32
2019-04-10T09:32:30.749Z,1019.31
2019-04-10T09:33:32.020Z,1019.28
2019-04-10T09:34:31.748Z,1019.42
2019-04-10T09:35:30.924Z,1019.34
2019-04-10T09:36:30.662Z,1019.34
2019-04-10T09:37:31.210Z,1019.32
2019-04-10T09:38:30.747Z,1019.31
2019-04-10T09:39:31.662Z,1019.36
2019-04-10T09:40:30.683Z,1019.32
2019-04-10T09:41:30.606Z,1019.27
2019-04-10T09:42:31.121Z,1019.30
2019-04-10T09:43:31.692Z,1019.28
2019-04-10T09:44:30.587Z,1019.28
2019-04-10T09:45:30.677Z,1019.29
2019-04-10T09:46:31.049Z,1019.29
2019-04-10T09:47:30.547Z,1019.20
2019-04-10T09:48:31.594Z,1019.14
2019-04-10T09:49:38.352Z,1019.19
2019-04-10T09:50:31.536Z,1019.24
2019-04-10T09:51:31.880Z,1019.24
2019-04-10T09:52:30.493Z,1019.25
2019-04-10T09:53:30.473Z,1019.28
2019-04-10T09:54:31.600Z,1019.22
2019-04-10T09:55:30.462Z,1019.28
2019-04-10T09:56:30.462Z,1019.27
2019-04-10T09:57:30.431Z,1019.37
2019-04-10T09:58:30.421Z,1019.29
2019-04-10T09:59:35.519Z,1019.19
2019-04-10T10:00:31.932Z,1019.24
2019-04-10T10:01:30.419Z,1019.27
2019-04-10T10:02:31.530Z,1019.25
2019-04-10T10:03:30.401Z,1019.26
2019-04-10T10:04:31.267Z,1019.27
2019-04-10T10:05:30.733Z,1019.27
2019-04-10T10:06:34.528Z,1019.28
2019-04-10T10:07:31.319Z,1019.27
2019-04-10T10:08:30.318Z,1019.31
2019-04-10T10:09:30.713Z,1019.30
2019-04-10T10:10:32.893Z,1019.20
2019-04-10T10:11:30.707Z,1019.31
2019-04-10T10:12:30.276Z,1019.32
2019-04-10T10:13:30.264Z,1019.29
2019-04-10T10:14:32.693Z,1019.25
2019-04-10T10:15:31.339Z,1019.38
2019-04-10T10:16:30.421Z,1019.34
2019-04-10T10:17:30.809Z,1019.36
2019-04-10T10:18:30.292Z,1019.29
2019-04-10T10:19:30.191Z,1019.21
2019-04-10T10:20:30.746Z,1019.25
2019-04-10T10:21:30.388Z,1019.27
2019-04-10T10:22:30.918Z,1019.23
2019-04-10T10:23:30.269Z,1019.28
2019-04-10T10:24:30.913Z,1019.24
2019-04-10T10:25:31.243Z,1019.32
2019-04-10T10:26:30.233Z,1019.25
2019-04-10T10:27:30.230Z,1019.30
2019-04-10T10:28:30.993Z,1019.23
2019-04-10T10:29:30.175Z,1019.39
2019-04-10T10:30:30.088Z,1019.35
2019-04-10T10:31:30.489Z,1019.35
2019-04-10T10:32:30.055Z,1019.28
2019-04-10T10:33:30.065Z,1019.23
2019-04-10T10:34:30.281Z,1019.30
2019-04-10T10:35:30.026Z,1019.27
2019-04-10T10:36:40.825Z,1019.30
2019-04-10T10:37:31.003Z,1019.25
2019-04-10T10:38:30.108Z,1019.29
2019-04-10T10:39:30.726Z,1019.27
2019-04-10T10:40:30.000Z,1019.30
2019-04-10T10:41:29.966Z,1019.38
2019-04-10T10:42:29.966Z,1019.34
2019-04-10T10:43:29.961Z,1019.36
2019-04-10T10:44:30.172Z,1019.36
2019-04-10T10:45:31.065Z,1019.37
2019-04-10T10:46:31.481Z,1019.38
2019-04-10T10:47:30.685Z,1019.25
2019-04-10T10:48:29.916Z,1019.38
2019-04-10T10:49:30.635Z,1019.30
2019-04-10T10:50:31.040Z,1019.32
2019-04-10T10:51:30.837Z,1019.26
2019-04-10T10:52:29.878Z,1019.31
2019-04-10T10:53:30.379Z,1019.22
2019-04-10T10:54:29.827Z,1019.28
2019-04-10T10:55:29.822Z,1019.33
2019-04-10T10:56:30.677Z,1019.42
2019-04-10T10:57:29.803Z,1019.33
2019-04-10T10:58:30.052Z,1019.30
2019-04-10T10:59:29.803Z,1019.36
2019-04-10T11:00:29.753Z,1019.22
2019-04-10T11:01:29.785Z,1019.26
2019-04-10T11:02:29.762Z,1019.31
2019-04-10T11:03:29.971Z,1019.34
2019-04-10T11:04:29.734Z,1019.42
2019-04-10T11:05:31.789Z,1019.31
2019-04-10T11:06:29.714Z,1019.30
2019-04-10T11:07:31.049Z,1019.35
2019-04-10T11:08:29.670Z,1019.22
2019-04-10T11:09:30.198Z,1019.41
2019-04-10T11:10:30.135Z,1019.24
2019-04-10T11:11:30.783Z,1019.36
2019-04-10T11:12:30.486Z,1019.32
2019-04-10T11:13:30.753Z,1019.32
2019-04-10T11:14:30.011Z,1019.30
2019-04-10T11:15:29.618Z,1019.38
2019-04-10T11:16:29.657Z,1019.26
2019-04-10T11:17:29.823Z,1019.14
2019-04-10T11:18:30.719Z,1019.33
2019-04-10T11:19:29.565Z,1019.31
2019-04-10T11:20:29.834Z,1019.30
2019-04-10T11:21:30.029Z,1019.34
2019-04-10T11:22:29.590Z,1019.30
2019-04-10T11:23:30.557Z,1019.30
2019-04-10T11:24:29.521Z,1019.33
2019-04-10T11:25:30.093Z,1019.34
2019-04-10T11:26:30.299Z,1019.48
2019-04-10T11:27:29.514Z,1019.30
2019-04-10T11:28:30.724Z,1019.26
2019-04-10T11:29:31.369Z,1019.31
2019-04-10T11:30:29.482Z,1019.27
2019-04-10T11:31:29.474Z,1019.28
2019-04-10T11:32:30.429Z,1019.28
2019-04-10T11:33:30.745Z,1019.33
2019-04-10T11:34:30.573Z,1019.24
2019-04-10T11:35:29.388Z,1019.34
2019-04-10T11:36:30.060Z,1019.35
2019-04-10T11:37:37.345Z,1019.27
2019-04-10T11:38:30.368Z,1019.31
2019-04-10T11:39:33.057Z,1019.36
2019-04-10T11:40:31.781Z,1019.31
2019-04-10T11:41:30.854Z,1019.36
2019-04-10T11:42:31.779Z,1019.29
2019-04-10T11:43:30.244Z,1019.30
2019-04-10T11:44:29.779Z,1019.38
2019-04-10T11:45:38.026Z,1019.32
2019-04-10T11:46:32.093Z,1019.46
2019-04-10T11:47:31.321Z,1019.21
2019-04-10T11:48:29.501Z,1019.32
2019-04-10T11:49:31.055Z,1019.30
2019-04-10T11:50:30.005Z,1019.42
2019-04-10T11:51:31.536Z,1019.34
2019-04-10T11:53:32.600Z,1019.31
2019-04-10T11:54:32.214Z,1019.32
2019-04-10T11:55:29.789Z,1019.37
2019-04-10T11:56:30.231Z,1019.32
2019-04-10T11:57:30.804Z,1019.26
2019-04-10T11:58:29.171Z,1019.31
2019-04-10T11:59:31.556Z,1019.28
2019-04-10T12:01:39.225Z,1019.19
2019-04-10T12:02:39.736Z,1019.35
2019-04-10T12:03:44.222Z,1019.34
2019-04-10T12:04:48.383Z,1019.39
2019-04-10T12:05:41.235Z,1019.33
2019-04-10T12:06:39.817Z,1019.38
2019-04-10T12:08:00.198Z,1019.34